Time;durP1;ratioP1;P1;durP2;ratioP2;P2;SDS_P1;SDS_P2;PMS_P1;PMS_P2;Temp;Humidity;BMP_temperature;BMP_pressure;BME280_temperature;BME280_humidity;BME280_pressure;Samples;Min_cycle;Max_cycle;Signal;HPM_P1;HPM_P2
2023/01/03 00:01:09;;;;;;;9.60;3.97;;;2.60;99.90;;;;;;5137275;27;20069;-49
2023/01/03 00:03:35;;;;;;;9.27;3.90;;;2.70;99.90;;;;;;5106155;27;20050;-45
2023/01/03 00:06:00;;;;;;;7.80;4.18;;;2.70;99.90;;;;;;5125018;27;20043;-48
2023/01/03 00:08:27;;;;;;;9.13;4.18;;;2.70;99.90;;;;;;5137077;27;20042;-45
2023/01/03 00:10:53;;;;;;;9.80;4.25;;;2.60;99.90;;;;;;5136300;27;20448;-46
2023/01/03 00:13:19;;;;;;;11.85;4.30;;;2.60;99.90;;;;;;5132227;27;20092;-45
2023/01/03 00:15:44;;;;;;;10.82;4.90;;;2.60;99.90;;;;;;5128726;27;20453;-46
2023/01/03 00:18:10;;;;;;;10.75;4.85;;;2.60;99.90;;;;;;5133341;27;20043;-52
2023/01/03 00:20:36;;;;;;;11.93;4.70;;;2.70;99.90;;;;;;5128336;27;20046;-46
2023/01/03 00:23:01;;;;;;;8.50;4.50;;;2.50;99.90;;;;;;5132200;27;20047;-44
2023/01/03 00:25:28;;;;;;;11.25;4.53;;;2.60;99.90;;;;;;5128242;27;20062;-48
2023/01/03 00:27:54;;;;;;;7.80;3.88;;;2.50;99.90;;;;;;5136596;27;20500;-47
2023/01/03 00:30:19;;;;;;;10.70;4.60;;;2.70;99.90;;;;;;5105527;27;20185;-45
2023/01/03 00:32:45;;;;;;;10.13;4.30;;;2.50;99.90;;;;;;5135327;27;20042;-43
2023/01/03 00:35:11;;;;;;;10.77;3.97;;;2.40;99.90;;;;;;5137185;27;20054;-47
2023/01/03 00:37:37;;;;;;;8.98;3.72;;;2.30;99.90;;;;;;5137373;27;20544;-46
2023/01/03 00:40:03;;;;;;;8.30;3.70;;;2.40;99.90;;;;;;5123082;27;20392;-47
2023/01/03 00:42:28;;;;;;;9.95;3.70;;;2.30;99.90;;;;;;5128770;27;20039;-46
2023/01/03 00:44:54;;;;;;;8.20;3.70;;;2.30;99.90;;;;;;5116253;27;20537;-46
2023/01/03 00:47:20;;;;;;;11.63;3.58;;;2.20;99.90;;;;;;5129803;27;20104;-43
2023/01/03 00:49:45;;;;;;;9.02;4.05;;;2.20;99.90;;;;;;5115547;27;20340;-45
2023/01/03 00:52:11;;;;;;;10.15;3.60;;;2.30;99.90;;;;;;5135939;27;20426;-47
2023/01/03 00:54:37;;;;;;;10.43;3.83;;;2.10;99.90;;;;;;5124830;27;20099;-45
2023/01/03 00:57:02;;;;;;;10.23;3.45;;;2.10;99.90;;;;;;5128380;27;20536;-44
2023/01/03 00:59:28;;;;;;;6.65;3.53;;;2.20;99.90;;;;;;5127968;27;20342;-45
2023/01/03 01:01:55;;;;;;;9.45;3.33;;;2.20;99.90;;;;;;5130005;27;20041;-47
2023/01/03 01:04:24;;;;;;;7.10;3.30;;;2.20;99.90;;;;;;5094039;27;20043;-45
2023/01/03 01:07:02;;;;;;;9.18;3.67;;;2.20;99.90;;;;;;5134715;27;20054;-47
2023/01/03 01:09:33;;;;;;;7.40;4.45;;;2.10;99.90;;;;;;5121407;27;20035;-44
2023/01/03 01:11:59;;;;;;;9.40;3.80;;;2.10;99.90;;;;;;5124409;27;20122;-48
2023/01/03 01:14:27;;;;;;;8.27;3.30;;;2.20;99.90;;;;;;5120110;27;20092;-46
2023/01/03 01:16:56;;;;;;;17.92;4.32;;;2.20;99.90;;;;;;5123504;27;20047;-45
2023/01/03 01:19:27;;;;;;;8.38;3.22;;;2.10;99.90;;;;;;5135588;27;20050;-47
2023/01/03 01:21:53;;;;;;;8.90;3.20;;;2.10;99.90;;;;;;5135451;27;20098;-43
2023/01/03 01:24:19;;;;;;;12.45;4.07;;;2.30;99.90;;;;;;5122075;27;20401;-49
2023/01/03 01:26:45;;;;;;;8.70;3.33;;;2.40;99.90;;;;;;5136486;27;20392;-46
2023/01/03 01:29:12;;;;;;;9.50;3.95;;;2.30;99.90;;;;;;5122548;27;20051;-44
2023/01/03 01:31:39;;;;;;;13.73;3.70;;;2.60;99.90;;;;;;5117371;27;20664;-43
2023/01/03 01:34:05;;;;;;;9.52;3.85;;;2.50;99.90;;;;;;5102837;27;20072;-46
2023/01/03 01:36:36;;;;;;;9.57;3.67;;;2.60;99.90;;;;;;5125972;27;20039;-44
2023/01/03 01:39:09;;;;;;;9.90;3.67;;;2.70;99.90;;;;;;5132354;27;20046;-47
2023/01/03 01:44:39;;;;;;;12.32;3.17;;;2.80;99.90;;;;;;5123263;27;20052;-47
2023/01/03 01:47:12;;;;;;;9.68;3.22;;;2.80;99.90;;;;;;5100019;28;20499;-47
2023/01/03 01:49:38;;;;;;;9.88;3.17;;;2.80;99.90;;;;;;5126113;27;20093;-46
2023/01/03 01:52:03;;;;;;;8.15;3.08;;;2.90;99.90;;;;;;5118074;27;20872;-44
2023/01/03 01:54:30;;;;;;;12.30;3.72;;;2.90;99.90;;;;;;5131375;27;20433;-47
2023/01/03 01:56:56;;;;;;;9.68;3.08;;;2.80;99.90;;;;;;5134379;27;20400;-50
2023/01/03 01:59:22;;;;;;;9.50;3.00;;;2.80;99.90;;;;;;5131128;27;20133;-43
2023/01/03 02:01:48;;;;;;;7.65;3.05;;;2.80;99.90;;;;;;5125440;27;20052;-46
2023/01/03 02:04:23;;;;;;;7.55;2.60;;;2.90;99.90;;;;;;5128126;27;20436;-49
2023/01/03 02:06:49;;;;;;;10.20;3.15;;;2.90;99.90;;;;;;5125774;27;20046;-45
2023/01/03 02:09:15;;;;;;;7.53;2.50;;;2.70;99.90;;;;;;5125994;27;20043;-44
2023/01/03 02:15:09;;;;;;;7.65;2.40;;;2.60;99.90;;;;;;5120726;27;20043;-49
2023/01/03 02:17:49;;;;;;;4.65;2.38;;;2.50;99.90;;;;;;5132591;27;20039;-46
2023/01/03 02:20:27;;;;;;;13.73;3.45;;;2.40;99.90;;;;;;5119210;27;20061;-45
2023/01/03 02:23:11;;;;;;;6.25;2.83;;;2.40;99.90;;;;;;5121898;27;20403;-45
2023/01/03 02:25:45;;;;;;;8.80;2.78;;;2.20;99.90;;;;;;5132594;27;20035;-45
2023/01/03 02:28:26;;;;;;;5.35;3.15;;;2.20;99.90;;;;;;5132342;27;20092;-48
2023/01/03 02:30:58;;;;;;;8.05;3.15;;;2.10;99.90;;;;;;5131460;27;20059;-44
2023/01/03 02:33:37;;;;;;;9.35;2.50;;;2.10;99.90;;;;;;5129195;27;20153;-49
2023/01/03 02:36:25;;;;;;;10.52;2.80;;;2.00;99.90;;;;;;5125556;27;20407;-45
2023/01/03 02:38:57;;;;;;;7.07;2.50;;;2.10;99.90;;;;;;5124629;27;20364;-48
2023/01/03 02:41:27;;;;;;;8.57;3.03;;;2.00;99.90;;;;;;5138729;27;20042;-47
2023/01/03 02:44:20;;;;;;;10.80;2.90;;;1.90;99.90;;;;;;5123429;27;20057;-49
2023/01/03 02:47:01;;;;;;;12.32;3.25;;;1.90;99.90;;;;;;5132903;27;20046;-46
2023/01/03 02:49:37;;;;;;;6.10;2.95;;;1.90;99.90;;;;;;5138750;27;20031;-48
2023/01/03 02:52:13;;;;;;;6.45;3.20;;;1.90;99.90;;;;;;5125377;27;20043;-44
2023/01/03 02:54:45;;;;;;;6.57;3.42;;;2.00;99.90;;;;;;5121675;27;20130;-47
2023/01/03 02:57:18;;;;;;;7.00;3.05;;;2.00;99.90;;;;;;5131892;27;20047;-43
2023/01/03 02:59:53;;;;;;;9.73;3.30;;;1.90;99.90;;;;;;5117590;27;20046;-47
2023/01/03 03:02:23;;;;;;;9.57;3.20;;;2.00;99.90;;;;;;5117167;27;20460;-45
2023/01/03 03:04:54;;;;;;;8.10;3.70;;;1.90;99.90;;;;;;5132226;27;20067;-47
2023/01/03 03:07:30;;;;;;;8.05;3.45;;;2.00;99.90;;;;;;5137157;27;20146;-49
2023/01/03 03:15:35;;;;;;;10.80;3.35;;;1.80;99.90;;;;;;5117877;27;20412;-44
2023/01/03 03:18:15;;;;;;;9.27;3.38;;;1.90;99.90;;;;;;5135058;27;20494;-46
2023/01/03 03:26:17;;;;;;;11.02;3.63;;;1.80;99.90;;;;;;5119961;27;20151;-48
2023/01/03 03:28:48;;;;;;;8.35;3.80;;;1.80;99.90;;;;;;5137862;27;20053;-47
2023/01/03 03:31:29;;;;;;;7.38;4.60;;;1.90;99.90;;;;;;5130876;27;20043;-46
2023/01/03 03:34:13;;;;;;;10.75;4.32;;;1.80;99.90;;;;;;5132088;27;20046;-49
2023/01/03 03:36:39;;;;;;;11.65;4.57;;;1.80;99.90;;;;;;5127732;27;20047;-45
2023/01/03 03:44:59;;;;;;;13.63;5.20;;;1.80;99.90;;;;;;5098370;27;20035;-46
2023/01/03 03:45:01;;;;;;;15.13;6.68;;;1.70;99.90;;;;;;5117947;27;20532;-48
2023/01/03 03:47:26;;;;;;;14.63;8.35;;;1.80;99.90;;;;;;5123506;27;20039;-45
2023/01/03 03:49:55;;;;;;;15.55;7.50;;;1.70;99.90;;;;;;5136807;27;20384;-45
2023/01/03 03:52:26;;;;;;;20.02;9.43;;;1.80;99.90;;;;;;5112863;27;20047;-43
2023/01/03 03:55:09;;;;;;;16.38;9.15;;;1.80;99.90;;;;;;5131365;27;20099;-47
2023/01/03 03:57:41;;;;;;;16.58;9.27;;;1.90;99.90;;;;;;5118198;27;20497;-47
2023/01/03 04:00:12;;;;;;;19.13;9.85;;;2.10;99.90;;;;;;5122895;27;20434;-43
2023/01/03 04:02:40;;;;;;;20.42;9.93;;;1.90;99.90;;;;;;5126992;27;20054;-44
2023/01/03 04:05:10;;;;;;;23.70;11.02;;;2.10;99.90;;;;;;5136392;27;20173;-43
2023/01/03 04:07:36;;;;;;;20.92;11.38;;;2.10;99.90;;;;;;5138252;27;20084;-43
2023/01/03 04:10:02;;;;;;;22.40;12.35;;;2.10;99.90;;;;;;5136698;27;20121;-47
2023/01/03 04:12:28;;;;;;;29.77;14.10;;;2.20;99.90;;;;;;5118744;27;20069;-47
2023/01/03 04:14:53;;;;;;;23.73;14.15;;;2.30;99.90;;;;;;5099476;27;20047;-48
2023/01/03 04:17:19;;;;;;;33.20;16.20;;;2.20;99.90;;;;;;5098526;27;20055;-53
2023/01/03 04:19:44;;;;;;;28.17;15.63;;;2.40;99.90;;;;;;5134297;27;20176;-46
2023/01/03 04:22:10;;;;;;;34.33;16.23;;;2.40;99.90;;;;;;5137445;27;20087;-45
2023/01/03 04:24:36;;;;;;;26.77;16.00;;;2.50;99.90;;;;;;5114433;27;20083;-46
2023/01/03 04:27:01;;;;;;;27.58;15.95;;;2.40;99.90;;;;;;5128930;27;20034;-47
2023/01/03 04:29:27;;;;;;;30.08;16.23;;;2.40;99.90;;;;;;5117396;27;20039;-43
2023/01/03 04:31:53;;;;;;;26.10;15.68;;;2.40;99.90;;;;;;5097960;27;20082;-48
2023/01/03 04:34:18;;;;;;;27.27;16.02;;;2.50;99.90;;;;;;5111789;27;20531;-47
2023/01/03 04:36:44;;;;;;;27.58;16.83;;;2.60;99.90;;;;;;5128876;27;20035;-48
2023/01/03 04:39:10;;;;;;;29.90;16.77;;;2.60;99.90;;;;;;5123790;27;20035;-46
2023/01/03 04:41:35;;;;;;;30.42;15.85;;;2.60;99.90;;;;;;5118624;27;20039;-47
2023/01/03 04:44:01;;;;;;;29.42;16.80;;;2.50;99.90;;;;;;5120378;27;20047;-43
2023/01/03 04:46:36;;;;;;;32.90;18.38;;;2.50;99.90;;;;;;5098959;27;20111;-44
2023/01/03 04:49:04;;;;;;;28.58;16.77;;;2.70;99.90;;;;;;5123441;27;20066;-43
2023/01/03 04:51:30;;;;;;;30.92;18.38;;;2.70;99.90;;;;;;5136889;27;20671;-44
2023/01/03 04:53:56;;;;;;;30.38;17.95;;;2.60;99.90;;;;;;5130645;27;20043;-45
2023/01/03 04:56:36;;;;;;;30.90;17.60;;;2.70;99.90;;;;;;5099282;27;20389;-44
2023/01/03 04:59:02;;;;;;;27.25;17.40;;;2.80;99.90;;;;;;5124710;27;20031;-44
2023/01/03 05:01:27;;;;;;;34.65;16.85;;;2.70;99.90;;;;;;5120274;27;20114;-44
2023/01/03 05:04:00;;;;;;;32.47;16.80;;;2.70;99.90;;;;;;5125657;27;20511;-47
2023/01/03 05:06:27;;;;;;;23.92;13.57;;;2.60;99.90;;;;;;5131801;27;20075;-43
2023/01/03 05:08:53;;;;;;;28.33;16.25;;;2.50;99.90;;;;;;5125932;27;20088;-47
2023/01/03 05:11:18;;;;;;;28.95;16.83;;;2.40;99.90;;;;;;5113499;27;20530;-50
2023/01/03 05:13:44;;;;;;;30.02;16.73;;;2.40;99.90;;;;;;5118281;27;20514;-49
2023/01/03 05:16:12;;;;;;;29.13;17.20;;;2.40;99.90;;;;;;5099786;27;20047;-45
2023/01/03 05:18:38;;;;;;;28.65;17.63;;;2.30;99.90;;;;;;5108960;27;20093;-46
2023/01/03 05:26:42;;;;;;;32.50;18.02;;;2.30;99.90;;;;;;5124067;27;20070;-47
2023/01/03 05:29:10;;;;;;;31.55;18.75;;;2.30;99.90;;;;;;5115328;27;20606;-45
2023/01/03 05:31:36;;;;;;;31.90;19.00;;;2.10;99.90;;;;;;5123967;27;20046;-45
2023/01/03 05:34:02;;;;;;;38.13;21.33;;;2.00;99.90;;;;;;5120401;27;20046;-47
2023/01/03 05:36:27;;;;;;;39.17;20.08;;;2.10;99.90;;;;;;5124277;27;20045;-43
2023/01/03 05:38:53;;;;;;;31.52;19.27;;;2.00;99.90;;;;;;5135602;27;20090;-44
2023/01/03 05:41:58;;;;;;;34.53;20.58;;;2.10;99.90;;;;;;5126662;27;20826;-45
2023/01/03 05:44:04;;;;;;;34.17;20.10;;;2.00;99.90;;;;;;5116858;27;20051;-46
2023/01/03 05:46:31;;;;;;;34.63;19.77;;;1.90;99.90;;;;;;5127443;27;20263;-46
2023/01/03 05:48:56;;;;;;;34.67;21.48;;;1.80;99.90;;;;;;5130012;27;20035;-45
2023/01/03 05:51:22;;;;;;;33.78;21.35;;;1.90;99.90;;;;;;5115476;27;20043;-43
2023/01/03 05:53:48;;;;;;;33.25;21.45;;;1.90;99.90;;;;;;5134637;27;20042;-45
2023/01/03 05:56:13;;;;;;;39.00;23.58;;;1.90;99.90;;;;;;5136348;27;20042;-45
2023/01/03 05:58:42;;;;;;;40.80;24.98;;;1.90;99.90;;;;;;5117555;27;20396;-48
2023/01/03 06:01:12;;;;;;;40.90;23.48;;;1.80;99.90;;;;;;5135816;27;20042;-44
2023/01/03 06:03:37;;;;;;;39.58;23.52;;;1.70;99.90;;;;;;5115442;27;20043;-44
2023/01/03 06:06:08;;;;;;;36.45;23.65;;;1.80;99.90;;;;;;5128976;27;20444;-44
2023/01/03 06:08:35;;;;;;;41.70;23.27;;;1.70;99.90;;;;;;5121098;27;20381;-45
2023/01/03 06:11:12;;;;;;;39.70;24.73;;;1.80;99.90;;;;;;5121638;27;20233;-45
2023/01/03 06:13:39;;;;;;;44.28;25.17;;;1.70;99.90;;;;;;5128037;27;20043;-47
2023/01/03 06:18:51;;;;;;;49.22;27.70;;;1.60;99.90;;;;;;5114412;27;20088;-42
2023/01/03 06:21:17;;;;;;;45.20;27.58;;;1.70;99.90;;;;;;5112871;27;20047;-48
2023/01/03 06:23:46;;;;;;;46.33;26.95;;;1.70;99.90;;;;;;5135708;27;20111;-44
2023/01/03 06:26:20;;;;;;;42.67;26.67;;;1.50;99.90;;;;;;5112995;28;20047;-43
2023/01/03 06:28:46;;;;;;;43.72;26.88;;;1.50;99.90;;;;;;5126936;27;20479;-44
2023/01/03 06:31:12;;;;;;;44.97;26.00;;;1.40;99.90;;;;;;5120235;27;20110;-43
2023/01/03 06:33:39;;;;;;;41.90;27.40;;;1.60;99.90;;;;;;5123304;27;20579;-47
2023/01/03 06:36:17;;;;;;;44.47;25.95;;;1.50;99.90;;;;;;5134570;27;20081;-48
2023/01/03 06:38:43;;;;;;;44.00;26.73;;;1.50;99.90;;;;;;5122932;27;20039;-46
2023/01/03 06:41:09;;;;;;;44.30;24.50;;;1.50;99.90;;;;;;5139935;27;20466;-45
2023/01/03 06:43:35;;;;;;;41.92;25.02;;;1.30;99.90;;;;;;5126640;27;20047;-46
2023/01/03 06:54:24;;;;;;;36.42;23.40;;;1.30;99.90;;;;;;5118543;27;20454;-44
2023/01/03 06:56:51;;;;;;;42.63;24.88;;;1.30;99.90;;;;;;5122478;27;20045;-44
2023/01/03 06:59:17;;;;;;;37.42;24.08;;;1.40;99.90;;;;;;5108570;27;20043;-44
2023/01/03 07:01:44;;;;;;;36.10;22.77;;;1.40;99.90;;;;;;5135386;27;20054;-46
2023/01/03 07:04:10;;;;;;;35.88;21.75;;;1.40;99.90;;;;;;5140035;27;20043;-45
2023/01/03 07:06:36;;;;;;;38.08;22.83;;;1.30;99.90;;;;;;5139625;27;20528;-45
2023/01/03 07:09:02;;;;;;;37.13;23.73;;;1.30;99.90;;;;;;5102767;27;20047;-46
2023/01/03 07:11:28;;;;;;;38.42;22.88;;;1.40;99.90;;;;;;5102158;27;20472;-44
2023/01/03 07:13:57;;;;;;;36.20;23.20;;;1.30;99.90;;;;;;5119497;27;20155;-47
2023/01/03 07:16:23;;;;;;;36.40;23.08;;;1.30;99.90;;;;;;5103464;27;20043;-44
2023/01/03 07:18:49;;;;;;;38.78;23.40;;;1.50;99.90;;;;;;5128269;27;20470;-45
2023/01/03 07:21:15;;;;;;;39.47;25.15;;;1.30;99.90;;;;;;5132027;27;20409;-48
2023/01/03 07:23:40;;;;;;;40.90;24.92;;;1.50;99.90;;;;;;5100356;27;20477;-45
2023/01/03 07:26:06;;;;;;;41.03;26.42;;;1.40;99.90;;;;;;5121976;27;20126;-43
2023/01/03 07:28:32;;;;;;;40.75;25.05;;;1.50;99.90;;;;;;5127424;27;20401;-45
2023/01/03 07:31:02;;;;;;;45.95;26.90;;;1.40;99.90;;;;;;5122204;27;20042;-44
2023/01/03 07:33:28;;;;;;;45.03;28.40;;;1.30;99.90;;;;;;5127185;27;20074;-45
2023/01/03 07:36:02;;;;;;;46.60;28.35;;;1.40;99.90;;;;;;5136492;27;20142;-47
2023/01/03 07:38:28;;;;;;;47.88;28.52;;;1.50;99.90;;;;;;5137622;27;20122;-43
2023/01/03 07:40:57;;;;;;;48.45;31.15;;;1.50;99.90;;;;;;5120816;27;20043;-46
2023/01/03 07:43:35;;;;;;;50.45;31.35;;;1.30;99.90;;;;;;5121489;27;20130;-44
2023/01/03 07:46:08;;;;;;;51.70;33.53;;;1.50;99.90;;;;;;5127769;27;20050;-43
2023/01/03 07:48:35;;;;;;;58.20;34.83;;;1.40;99.90;;;;;;5135534;27;20935;-43
2023/01/03 07:51:01;;;;;;;63.50;34.17;;;1.40;99.90;;;;;;5090966;27;20127;-48
2023/01/03 07:53:27;;;;;;;124.88;44.05;;;1.30;99.90;;;;;;5117787;27;20095;-45
2023/01/03 07:55:53;;;;;;;105.60;44.47;;;1.40;99.90;;;;;;5116765;27;20051;-43
2023/01/03 07:58:19;;;;;;;106.40;42.92;;;1.30;99.90;;;;;;5119586;27;20484;-45
2023/01/03 08:00:44;;;;;;;173.75;45.65;;;1.50;99.90;;;;;;5137624;27;20039;-45
2023/01/03 08:03:10;;;;;;;207.18;50.00;;;1.40;99.90;;;;;;5122700;27;20846;-48
2023/01/03 08:05:36;;;;;;;197.35;45.22;;;1.60;99.90;;;;;;5118803;27;20047;-44
2023/01/03 08:08:03;;;;;;;221.40;51.33;;;1.60;99.90;;;;;;5119912;27;20043;-47
2023/01/03 08:13:29;;;;;;;203.05;44.15;;;1.50;99.90;;;;;;5058686;28;20205;-45
2023/01/03 08:15:56;;;;;;;177.90;41.67;;;1.40;99.90;;;;;;5019897;28;20056;-46
2023/01/03 08:18:26;;;;;;;165.57;40.90;;;1.30;99.90;;;;;;5010296;28;20659;-46
2023/01/03 08:20:54;;;;;;;190.65;40.22;;;1.30;99.90;;;;;;5049672;28;20044;-48
2023/01/03 08:23:21;;;;;;;204.90;39.80;;;1.50;99.90;;;;;;5045472;28;20069;-46
2023/01/03 08:25:46;;;;;;;257.30;41.05;;;1.50;99.90;;;;;;5052178;28;20768;-44
2023/01/03 08:28:12;;;;;;;186.82;38.17;;;1.30;99.90;;;;;;5038133;28;20060;-44
2023/01/03 08:30:44;;;;;;;205.85;40.15;;;1.60;99.90;;;;;;5048986;28;20055;-43
2023/01/03 08:33:12;;;;;;;256.40;45.40;;;1.50;99.90;;;;;;5052500;28;20422;-48
2023/01/03 08:35:42;;;;;;;246.57;49.78;;;1.70;99.90;;;;;;5050785;28;20791;-44
2023/01/03 08:38:13;;;;;;;241.30;49.00;;;1.50;99.90;;;;;;5051678;28;20052;-46
2023/01/03 08:40:40;;;;;;;281.40;48.10;;;1.60;99.90;;;;;;5051346;28;20057;-46
2023/01/03 08:43:06;;;;;;;355.02;67.05;;;1.80;99.90;;;;;;5028091;28;20128;-44
2023/01/03 08:45:33;;;;;;;337.95;59.72;;;2.00;99.90;;;;;;5063093;28;20593;-46
2023/01/03 08:48:01;;;;;;;410.95;62.42;;;1.90;99.90;;;;;;5098965;27;20405;-43
2023/01/03 08:50:29;;;;;;;352.08;54.15;;;2.10;99.90;;;;;;5115986;27;20091;-45
2023/01/03 08:52:55;;;;;;;372.40;55.03;;;2.10;99.90;;;;;;5136639;27;20126;-46
2023/01/03 08:55:21;;;;;;;351.85;52.50;;;2.30;99.90;;;;;;5122794;27;20493;-45
2023/01/03 08:57:47;;;;;;;375.30;55.03;;;2.10;99.90;;;;;;5105527;27;20047;-46
2023/01/03 09:00:13;;;;;;;360.70;55.15;;;2.20;99.90;;;;;;5132412;27;20039;-47
2023/01/03 09:02:39;;;;;;;400.75;55.83;;;2.30;99.90;;;;;;5123901;27;20289;-44
2023/01/03 09:05:06;;;;;;;394.92;58.35;;;2.50;99.90;;;;;;5129426;27;20095;-47
2023/01/03 09:07:32;;;;;;;414.38;59.20;;;2.50;99.90;;;;;;5128424;27;20180;-47
2023/01/03 09:09:57;;;;;;;450.77;61.92;;;2.70;99.90;;;;;;5120684;27;20430;-48
2023/01/03 09:12:23;;;;;;;404.38;56.40;;;2.60;99.90;;;;;;5122244;27;20046;-45
2023/01/03 09:14:49;;;;;;;421.23;59.72;;;2.70;99.90;;;;;;5126638;27;20038;-43
2023/01/03 09:17:15;;;;;;;343.40;54.67;;;2.80;99.90;;;;;;5124542;27;20042;-46
2023/01/03 09:19:40;;;;;;;252.15;47.78;;;2.70;99.90;;;;;;5114675;27;20039;-48
2023/01/03 09:22:06;;;;;;;364.70;57.00;;;3.00;99.90;;;;;;5125930;27;20091;-43
2023/01/03 09:24:32;;;;;;;374.98;59.33;;;2.80;99.90;;;;;;5118788;27;20600;-49
2023/01/03 09:26:57;;;;;;;317.70;52.30;;;2.90;99.90;;;;;;5114473;27;20047;-49
2023/01/03 09:29:23;;;;;;;394.00;61.47;;;3.20;99.90;;;;;;5114941;27;20590;-46
2023/01/03 09:31:49;;;;;;;243.23;50.10;;;3.00;99.90;;;;;;5117377;27;20456;-49
2023/01/03 09:34:14;;;;;;;331.50;56.45;;;3.20;99.90;;;;;;5095732;27;20082;-48
2023/01/03 09:36:40;;;;;;;366.20;61.63;;;3.30;99.90;;;;;;5117169;27;20035;-49
2023/01/03 09:39:06;;;;;;;276.02;55.28;;;3.40;99.90;;;;;;5116684;27;20299;-45
2023/01/03 09:41:32;;;;;;;274.27;56.55;;;3.40;99.90;;;;;;5118107;27;20039;-49
2023/01/03 09:44:04;;;;;;;289.80;60.78;;;3.30;99.90;;;;;;5117791;27;20066;-45
2023/01/03 09:46:31;;;;;;;217.90;57.03;;;3.50;99.90;;;;;;5116855;27;20635;-46
2023/01/03 09:48:58;;;;;;;273.65;59.70;;;3.40;99.90;;;;;;5114299;27;20436;-47
2023/01/03 10:06:12;;;;;;;173.10;55.80;;;4.10;99.90;;;;;;5020399;28;20729;-50
2023/01/03 10:08:56;;;;;;;186.95;60.25;;;4.00;99.90;;;;;;5013529;28;20060;-48
2023/01/03 10:11:51;;;;;;;197.35;60.03;;;4.30;99.90;;;;;;5027722;28;20060;-45
2023/01/03 10:14:30;;;;;;;141.45;54.88;;;4.40;99.90;;;;;;5009880;28;20512;-45
2023/01/03 10:17:26;;;;;;;196.13;61.20;;;4.50;99.90;;;;;;5045337;28;20053;-46
2023/01/03 10:20:09;;;;;;;174.52;58.47;;;4.40;99.90;;;;;;5034236;28;20517;-46
2023/01/03 10:22:36;;;;;;;164.45;58.25;;;4.60;99.90;;;;;;5044347;28;20447;-49
2023/01/03 10:25:13;;;;;;;169.57;61.90;;;4.80;99.90;;;;;;5042561;28;20056;-47
2023/01/03 10:27:50;;;;;;;157.40;57.70;;;4.90;99.90;;;;;;5048155;28;20061;-45
2023/01/03 10:30:27;;;;;;;158.77;58.30;;;4.80;99.90;;;;;;5030970;28;20095;-46
2023/01/03 10:33:07;;;;;;;166.88;61.47;;;4.90;99.90;;;;;;5118537;27;20075;-48
2023/01/03 10:35:35;;;;;;;165.55;59.42;;;5.10;99.90;;;;;;5132053;27;20564;-45
2023/01/03 10:38:01;;;;;;;159.02;58.22;;;5.10;99.90;;;;;;5117737;27;20054;-45
2023/01/03 10:40:37;;;;;;;150.60;55.92;;;5.10;99.90;;;;;;5117828;27;20110;-51
2023/01/03 10:43:27;;;;;;;186.88;56.55;;;5.20;99.90;;;;;;5100651;27;20043;-48
2023/01/03 10:45:56;;;;;;;140.57;54.80;;;5.10;99.90;;;;;;5104488;27;20134;-44
2023/01/03 10:48:23;;;;;;;141.00;57.05;;;5.00;99.90;;;;;;5116867;27;20189;-46
2023/01/03 10:50:49;;;;;;;130.02;53.25;;;5.00;99.90;;;;;;5118386;27;20047;-47
2023/01/03 10:53:20;;;;;;;134.85;57.25;;;5.30;99.90;;;;;;5121125;27;20100;-49
2023/01/03 10:55:52;;;;;;;134.68;55.35;;;5.30;99.90;;;;;;5126249;27;20125;-51
2023/01/03 10:58:26;;;;;;;120.70;51.75;;;5.50;99.90;;;;;;5122168;27;20093;-46
2023/01/03 11:00:54;;;;;;;103.53;50.55;;;5.40;99.90;;;;;;5118061;27;20054;-50
2023/01/03 11:03:24;;;;;;;103.45;48.95;;;5.30;99.90;;;;;;5131903;27;20054;-47
2023/01/03 11:05:56;;;;;;;94.50;47.15;;;5.30;99.90;;;;;;5099244;27;20054;-46
2023/01/03 11:08:33;;;;;;;95.43;48.15;;;5.30;99.90;;;;;;5123095;27;20055;-45
2023/01/03 11:10:59;;;;;;;93.63;47.00;;;5.40;99.90;;;;;;5128898;27;20567;-44
2023/01/03 11:13:40;;;;;;;91.03;46.38;;;5.40;99.90;;;;;;5098829;27;20061;-48
2023/01/03 11:16:17;;;;;;;83.28;47.50;;;5.40;99.90;;;;;;5116837;27;20039;-45
2023/01/03 11:19:02;;;;;;;93.90;47.22;;;5.20;99.90;;;;;;5098501;27;20158;-45
2023/01/03 11:21:52;;;;;;;90.22;45.97;;;5.50;99.90;;;;;;5100203;27;20074;-47
2023/01/03 11:24:47;;;;;;;85.72;46.13;;;5.40;99.90;;;;;;5118497;27;20222;-43
2023/01/03 11:27:17;;;;;;;83.43;45.95;;;5.50;99.90;;;;;;5138177;27;20046;-49
2023/01/03 11:30:01;;;;;;;85.07;45.65;;;5.40;99.90;;;;;;5129783;27;20047;-45
2023/01/03 11:32:41;;;;;;;88.10;47.55;;;5.50;99.90;;;;;;5131044;27;20053;-46
2023/01/03 11:35:38;;;;;;;80.47;46.20;;;5.70;99.90;;;;;;5129079;27;20050;-48
2023/01/03 11:38:40;;;;;;;76.93;43.10;;;5.60;99.90;;;;;;5116751;27;20085;-49
2023/01/03 11:41:28;;;;;;;76.40;42.78;;;5.50;99.90;;;;;;5125605;27;20046;-47
2023/01/03 11:44:22;;;;;;;76.32;45.22;;;5.60;99.90;;;;;;5137028;27;20096;-46
2023/01/03 11:46:57;;;;;;;76.43;42.70;;;5.60;99.90;;;;;;5132429;27;20572;-46
2023/01/03 11:49:35;;;;;;;68.30;41.10;;;5.60;99.90;;;;;;5114535;27;20043;-50
2023/01/03 11:52:28;;;;;;;70.82;41.72;;;5.80;99.90;;;;;;5120946;27;20043;-49
2023/01/03 11:55:13;;;;;;;70.20;40.60;;;5.80;99.90;;;;;;5119580;27;20089;-49
2023/01/03 11:58:01;;;;;;;72.28;39.83;;;5.90;99.90;;;;;;5118211;27;20047;-46
2023/01/03 12:00:42;;;;;;;73.57;39.53;;;5.70;99.90;;;;;;5106665;27;20374;-46
2023/01/03 12:03:17;;;;;;;80.40;41.53;;;5.70;99.90;;;;;;5121592;27;20381;-44
2023/01/03 12:05:47;;;;;;;71.97;38.38;;;5.80;99.90;;;;;;5119423;27;20434;-48
2023/01/03 12:08:35;;;;;;;73.00;40.58;;;6.00;99.90;;;;;;5122999;27;20043;-46
2023/01/03 12:11:16;;;;;;;66.15;36.83;;;6.00;99.90;;;;;;5115286;27;20043;-44
2023/01/03 12:13:44;;;;;;;65.00;36.95;;;6.10;99.90;;;;;;5117145;27;20064;-47
2023/01/03 12:16:14;;;;;;;70.03;38.42;;;5.90;99.90;;;;;;5119470;27;20043;-49
2023/01/03 12:19:14;;;;;;;61.03;34.72;;;6.20;99.90;;;;;;5101352;27;20051;-49
2023/01/03 12:21:47;;;;;;;73.10;36.88;;;6.10;99.90;;;;;;5032264;28;20110;-45
2023/01/03 12:24:21;;;;;;;61.70;35.67;;;6.00;99.90;;;;;;5032973;28;20059;-45
2023/01/03 12:26:52;;;;;;;62.60;34.65;;;6.00;99.90;;;;;;5031504;28;20057;-46
2023/01/03 12:29:45;;;;;;;59.20;34.40;;;6.20;99.90;;;;;;5024158;28;20049;-46
2023/01/03 12:32:44;;;;;;;59.22;32.97;;;6.10;99.90;;;;;;5027889;28;20167;-48
2023/01/03 12:35:47;;;;;;;60.22;33.50;;;6.30;99.90;;;;;;4955019;28;20057;-50
2023/01/03 12:38:14;;;;;;;60.10;32.88;;;6.20;99.90;;;;;;4960985;28;20523;-45
2023/01/03 12:41:06;;;;;;;61.67;32.72;;;6.10;99.90;;;;;;4969998;28;20228;-46
2023/01/03 12:43:41;;;;;;;55.03;30.88;;;6.20;99.90;;;;;;4964607;28;20046;-49
2023/01/03 12:46:18;;;;;;;54.88;31.92;;;6.40;99.90;;;;;;4972204;28;20060;-49
2023/01/03 12:48:52;;;;;;;59.53;31.50;;;6.30;99.90;;;;;;4963552;28;20058;-48
2023/01/03 12:51:21;;;;;;;55.25;31.75;;;6.50;99.90;;;;;;4966788;28;20295;-44
2023/01/03 12:54:04;;;;;;;50.35;31.17;;;6.50;99.90;;;;;;4952519;28;20047;-46
2023/01/03 12:56:50;;;;;;;53.75;31.73;;;6.40;99.90;;;;;;4936790;28;20688;-45
2023/01/03 12:59:18;;;;;;;52.60;31.08;;;6.50;99.90;;;;;;5058852;28;20048;-48
2023/01/03 13:01:52;;;;;;;59.10;31.80;;;6.50;99.90;;;;;;5069369;28;20060;-46
2023/01/03 13:04:33;;;;;;;57.38;30.02;;;6.50;99.90;;;;;;5063983;28;20136;-43
2023/01/03 13:07:06;;;;;;;49.42;31.60;;;6.60;99.90;;;;;;5071915;28;20095;-46
2023/01/03 13:09:36;;;;;;;54.58;29.50;;;6.40;99.90;;;;;;5056832;28;20048;-48
2023/01/03 13:12:14;;;;;;;52.55;29.00;;;6.50;99.90;;;;;;5123366;27;20050;-48
2023/01/03 13:15:02;;;;;;;52.70;31.13;;;6.40;99.90;;;;;;5099421;27;20075;-48
2023/01/03 13:17:30;;;;;;;54.45;32.28;;;6.50;99.90;;;;;;5127726;27;20424;-46
2023/01/03 13:20:16;;;;;;;53.80;30.42;;;6.70;99.90;;;;;;5116715;27;20047;-48
2023/01/03 13:22:48;;;;;;;57.97;32.10;;;6.50;99.90;;;;;;5117370;27;20066;-48
2023/01/03 13:25:26;;;;;;;50.30;28.70;;;6.50;99.90;;;;;;5135873;27;20413;-46
2023/01/03 13:27:54;;;;;;;48.47;30.85;;;6.70;99.90;;;;;;5130260;27;20047;-47
2023/01/03 13:30:32;;;;;;;49.13;28.58;;;6.70;99.90;;;;;;5096431;27;20503;-46
2023/01/03 13:33:15;;;;;;;55.05;29.10;;;6.70;99.90;;;;;;5113996;27;20055;-44
2023/01/03 13:35:44;;;;;;;58.88;31.63;;;6.70;99.90;;;;;;5112117;27;20384;-47
2023/01/03 13:38:19;;;;;;;58.63;30.63;;;6.70;99.90;;;;;;5124708;27;20047;-51
2023/01/03 13:40:49;;;;;;;54.78;30.38;;;6.70;99.90;;;;;;5113402;27;20047;-48
2023/01/03 13:43:27;;;;;;;57.70;31.10;;;6.60;99.90;;;;;;5117067;27;20058;-51
2023/01/03 13:45:56;;;;;;;57.05;32.78;;;6.60;99.90;;;;;;5114228;27;20054;-49
2023/01/03 13:48:26;;;;;;;57.42;31.30;;;6.80;99.90;;;;;;5111882;27;20564;-49
2023/01/03 13:51:10;;;;;;;57.20;33.05;;;6.60;99.90;;;;;;5122556;27;20062;-51
2023/01/03 13:53:37;;;;;;;;;;;6.60;99.90;;;;;;5124243;27;20062;-50
2023/01/03 13:56:15;;;;;;;55.13;32.08;;;6.80;99.90;;;;;;5125023;27;19930;-47